Flight Track Log - Related Links

Times and Time Zones

All times are in EDT time to prevent confusion due to time zone crossing. See the FLX100 flight status page for this flight to view local times or setup timezone preferences in your user account.

Time Position Orientation Groundspeed Altitude Reporting Facility
EDT Latitude Longitude Course Direction KTS MPH feet Rate Location/Type
Mon 07:25:15 PM 32.9163 -80.0960 291° West  Level FlightAware Approximate
Mon 07:26:15 PM 32.9304 -80.1405 291° West  Level FlightAware Approximate
Mon 07:27:15 PM 32.9444 -80.1849 288° West  Level FlightAware Approximate
Mon 07:28:15 PM 32.9565 -80.2296 291° West  Level FlightAware Approximate
Mon 07:29:15 PM 32.9706 -80.2741 291° West  Level FlightAware Approximate
Mon 07:30:15 PM 32.9846 -80.3185 291° West  Level FlightAware Approximate
Mon 07:31:15 PM 32.9987 -80.3630 291° West  Level FlightAware Approximate
Mon 07:32:15 PM 33.0127 -80.4075 291° West  Level FlightAware Approximate
Mon 07:33:15 PM 33.0267 -80.4520 322° Northwest  Level FlightAware Approximate
Mon 07:34:15 PM 33.0569 -80.4805 299° West  Level FlightAware Approximate
Mon 07:35:15 PM 33.0762 -80.5222 289° West  Level FlightAware Approximate
Mon 07:36:15 PM 33.0895 -80.5670 289° West  Level FlightAware Approximate
Mon 07:37:15 PM 33.1027 -80.6119 312° West  Level FlightAware Approximate
Mon 07:38:15 PM 33.1268 -80.6444 289° West  Level FlightAware Approximate
Mon 07:39:15 PM 33.1396 -80.6895 289° West  Level FlightAware Approximate
Mon 07:40:15 PM 33.1524 -80.7346 289° West  Level FlightAware Approximate
Mon 07:41:15 PM 33.1651 -80.7797 309° West  Level FlightAware Approximate
Mon 07:42:15 PM 33.1898 -80.8161 288° West  Level FlightAware Approximate
Mon 07:43:15 PM 33.2021 -80.8615 303° West  Level FlightAware Approximate
Mon 07:44:15 PM 33.2236 -80.9012 287° West  Level FlightAware Approximate
Mon 07:45:15 PM 33.2355 -80.9467 287° West  Level FlightAware Approximate
Mon 07:46:15 PM 33.2473 -80.9922 287° West  Level FlightAware Approximate
Mon 07:47:15 PM 33.2591 -81.0377 287° West  Level FlightAware Approximate
Mon 07:48:15 PM 33.2709 -81.0833 287° West  Level FlightAware Approximate
Mon 07:49:15 PM 33.2827 -81.1288 287° West  Level FlightAware Approximate
Mon 07:50:15 PM 33.2945 -81.1744 349° North  Level FlightAware Approximate
Mon 07:51:15 PM 33.3335 -81.1836 284° West  Level FlightAware Approximate
Mon 07:52:15 PM 33.3434 -81.2299 284° West  Level FlightAware Approximate
Mon 07:53:15 PM 33.3533 -81.2761 284° West  Level FlightAware Approximate
Mon 07:54:15 PM 33.3632 -81.3223 284° West  Level FlightAware Approximate
Mon 07:55:15 PM 33.3731 -81.3685 284° West  Level FlightAware Approximate
Mon 07:56:15 PM 33.3830 -81.4148 284° West  Level FlightAware Approximate
Mon 07:57:15 PM 33.3929 -81.4611 284° West  Level FlightAware Approximate
Mon 07:58:15 PM 33.4027 -81.5073 284° West  Level FlightAware Approximate
Mon 07:59:15 PM 33.4125 -81.5536 284° West  Level FlightAware Approximate
Mon 08:00:15 PM 33.4223 -81.5999 284° West  Level FlightAware Approximate
Mon 08:01:15 PM 33.4321 -81.6462 284° West  Level FlightAware Approximate
Mon 08:02:15 PM 33.4419 -81.6925 284° West  Level FlightAware Approximate
Mon 08:03:15 PM 33.4516 -81.7389 284° West  Level FlightAware Approximate

Login

Don't have an account? Register now (free) for customized features, flight alerts, and more!